Time;durP1;ratioP1;P1;durP2;ratioP2;P2;SDS_P1;SDS_P2;PMS_P1;PMS_P2;Temp;Humidity;BMP_temperature;BMP_pressure;BME280_temperature;BME280_humidity;BME280_pressure;Samples;Min_cycle;Max_cycle;Signal;HPM_P1;HPM_P2
2023/05/10 00:00:05;;;;;;;6.43;5.20;;;;;;;11.55;79.96;95501.13;5029137;28;20041;-80
2023/05/10 00:02:31;;;;;;;8.18;5.45;;;;;;;11.42;78.66;95475.97;5049476;28;20110;-76
2023/05/10 00:04:56;;;;;;;8.38;5.65;;;;;;;11.27;79.05;95459.28;5031547;28;20061;-76
2023/05/10 00:07:22;;;;;;;7.90;5.93;;;;;;;11.44;79.18;95476.47;5048834;28;20423;-76
2023/05/10 00:09:47;;;;;;;12.20;7.15;;;;;;;11.63;79.50;95519.19;5032623;28;20037;-76
2023/05/10 00:12:14;;;;;;;8.30;6.53;;;;;;;11.58;80.17;95496.09;5032251;28;20037;-76
2023/05/10 00:14:39;;;;;;;10.27;6.93;;;;;;;11.49;79.93;95491.59;5032468;28;20048;-77
2023/05/10 00:17:04;;;;;;;10.55;7.65;;;;;;;11.38;79.59;95466.13;5039805;28;20040;-76
2023/05/10 00:19:30;;;;;;;11.00;8.23;;;;;;;11.48;79.18;95503.28;5049879;28;20401;-76
2023/05/10 00:21:55;;;;;;;13.93;7.78;;;;;;;11.17;79.32;95457.44;5052038;28;20067;-76
2023/05/10 00:24:21;;;;;;;12.00;7.30;;;;;;;11.27;79.54;95468.06;5038431;28;20029;-76
2023/05/10 00:26:46;;;;;;;12.82;8.52;;;;;;;11.51;79.91;95503.56;5045056;28;20033;-76
2023/05/10 00:29:11;;;;;;;11.65;8.90;;;;;;;11.29;79.67;95473.09;5038878;28;20435;-76
2023/05/10 00:31:37;;;;;;;12.43;8.20;;;;;;;11.16;78.92;95448.69;5034784;28;20423;-76
2023/05/10 00:34:02;;;;;;;12.60;9.00;;;;;;;11.33;78.93;95477.59;5033106;28;20029;-75
2023/05/10 00:36:28;;;;;;;12.07;8.45;;;;;;;11.33;79.08;95482.09;5051681;28;20029;-75
2023/05/10 00:38:53;;;;;;;15.02;9.25;;;;;;;10.84;79.52;95409.22;5053872;28;20505;-76
2023/05/10 00:41:18;;;;;;;13.55;7.75;;;;;;;11.20;79.06;95468.34;5035245;28;20025;-76
2023/05/10 00:43:44;;;;;;;10.15;8.25;;;;;;;10.91;79.49;95445.31;5055743;28;20476;-75
2023/05/10 00:46:10;;;;;;;13.48;8.93;;;;;;;10.85;80.41;95431.25;5052221;28;20037;-76
2023/05/10 00:48:36;;;;;;;12.95;9.70;;;;;;;11.29;79.42;95478.41;5033708;28;20029;-75
2023/05/10 00:51:03;;;;;;;11.07;8.82;;;;;;;11.26;79.27;95492.22;5039026;28;20040;-76
2023/05/10 00:53:31;;;;;;;15.13;8.70;;;;;;;11.11;79.44;95458.53;5055173;28;20025;-76
2023/05/10 00:55:57;;;;;;;9.95;8.95;;;;;;;10.70;79.37;95428.63;5054914;28;20029;-76
2023/05/10 00:58:23;;;;;;;11.00;9.40;;;;;;;10.56;79.86;95390.44;5045641;28;20074;-76
2023/05/10 01:00:50;;;;;;;11.20;9.27;;;;;;;11.20;79.39;95492.22;5044380;28;20043;-75
2023/05/10 01:03:16;;;;;;;13.65;10.57;;;;;;;11.12;79.42;95473.41;5043476;28;20032;-76
2023/05/10 01:05:42;;;;;;;11.60;9.45;;;;;;;10.91;79.34;95424.84;5047247;28;20060;-76
2023/05/10 01:08:08;;;;;;;10.48;9.38;;;;;;;11.10;79.79;95465.69;5053274;28;20112;-75
2023/05/10 01:10:34;;;;;;;11.55;9.38;;;;;;;11.20;79.49;95491.44;5053223;28;20063;-75
2023/05/10 01:13:00;;;;;;;12.63;9.20;;;;;;;10.84;78.91;95472.09;5053255;28;20788;-75
2023/05/10 01:15:26;;;;;;;8.57;7.68;;;;;;;10.73;79.44;95450.13;5035926;28;20026;-76
2023/05/10 01:17:52;;;;;;;12.27;8.15;;;;;;;10.83;79.80;95475.84;5053706;28;20033;-76
2023/05/10 01:20:17;;;;;;;9.52;8.05;;;;;;;10.77;79.99;95458.31;5054125;28;20032;-76
2023/05/10 01:23:02;;;;;;;8.45;7.55;;;;;;;10.88;79.67;95481.13;5050302;28;20033;-76
2023/05/10 01:26:00;;;;;;;9.70;7.43;;;;;;;10.76;79.16;95478.75;5033511;28;20474;-77
2023/05/10 01:28:38;;;;;;;8.52;7.22;;;;;;;10.90;79.84;95475.56;5022496;28;20109;-77
2023/05/10 01:31:30;;;;;;;8.50;7.40;;;;;;;10.96;79.58;95469.19;5052586;28;20048;-76
2023/05/10 01:33:58;;;;;;;;;;;;;;;10.92;78.46;95473.41;5052607;28;20098;-76
2023/05/10 01:36:43;;;;;;;11.98;6.85;;;;;;;11.03;78.64;95472.34;5037969;28;19912;-76
2023/05/10 01:39:17;;;;;;;12.82;7.63;;;;;;;10.92;78.17;95453.00;5046342;28;20037;-76
2023/05/10 01:41:56;;;;;;;10.88;7.53;;;;;;;10.90;77.82;95464.94;5043471;28;20065;-76
2023/05/10 01:44:31;;;;;;;8.32;6.85;;;;;;;10.76;78.32;95430.19;5053103;28;20102;-76
2023/05/10 01:47:10;;;;;;;7.63;6.50;;;;;;;10.99;77.50;95460.66;5038319;28;20037;-76
2023/05/10 01:49:58;;;;;;;9.18;7.10;;;;;;;10.94;78.19;95461.47;5031983;28;20523;-77
2023/05/10 01:52:32;;;;;;;9.93;7.32;;;;;;;10.98;79.20;95459.91;5052529;28;20029;-76
2023/05/10 01:55:12;;;;;;;8.45;6.95;;;;;;;10.51;77.95;95385.16;5052489;28;20033;-76
2023/05/10 01:57:40;;;;;;;9.82;6.55;;;;;;;10.87;77.85;95463.63;5044598;28;20040;-77
2023/05/10 02:00:08;;;;;;;6.75;5.63;;;;;;;10.51;77.39;95412.47;5044963;28;20116;-77
2023/05/10 02:02:38;;;;;;;8.85;6.40;;;;;;;10.77;77.75;95443.19;5040531;28;20032;-77
2023/05/10 02:05:06;;;;;;;8.57;6.63;;;;;;;10.79;78.40;95434.97;5032731;28;20056;-77
2023/05/10 02:07:35;;;;;;;10.18;6.90;;;;;;;10.74;78.37;95425.19;5032199;28;20060;-77
2023/05/10 02:10:04;;;;;;;7.65;6.60;;;;;;;11.05;77.85;95475.53;5033693;28;20462;-77
2023/05/10 02:12:35;;;;;;;11.18;6.80;;;;;;;10.82;78.28;95431.81;5032233;28;20059;-77
2023/05/10 02:15:02;;;;;;;11.35;7.03;;;;;;;10.93;79.13;95467.84;5032618;28;20026;-77
2023/05/10 02:17:30;;;;;;;7.10;6.40;;;;;;;10.84;78.78;95441.06;5034020;28;20053;-77
2023/05/10 02:19:57;;;;;;;7.60;6.88;;;;;;;10.71;78.39;95428.34;5033410;28;20489;-77
2023/05/10 02:22:24;;;;;;;8.75;6.53;;;;;;;10.82;77.72;95472.41;5035370;28;20446;-77
2023/05/10 02:24:50;;;;;;;8.00;5.85;;;;;;;10.86;77.36;95469.19;5052176;28;20060;-78
2023/05/10 02:27:18;;;;;;;8.10;6.30;;;;;;;10.82;77.33;95476.91;5052256;28;20021;-78
2023/05/10 02:29:46;;;;;;;6.47;5.72;;;;;;;10.78;77.52;95470.53;5045055;28;20042;-78
2023/05/10 02:32:12;;;;;;;7.82;6.70;;;;;;;10.68;77.59;95452.00;5040678;28;20028;-76
2023/05/10 02:34:39;;;;;;;11.82;6.60;;;;;;;10.42;76.99;95430.78;5041079;28;20519;-76
2023/05/10 02:37:05;;;;;;;10.32;6.13;;;;;;;10.47;75.87;95432.63;5031620;28;20029;-77
2023/05/10 02:39:32;;;;;;;10.35;6.53;;;;;;;10.61;76.03;95451.44;5032001;28;20424;-78
2023/05/10 02:41:58;;;;;;;10.60;5.20;;;;;;;9.57;74.32;95314.94;5046162;28;20037;-76
2023/05/10 02:44:30;;;;;;;8.57;6.00;;;;;;;10.49;75.17;95469.47;5052768;28;20155;-76
2023/05/10 02:46:56;;;;;;;11.02;5.93;;;;;;;10.25;74.23;95442.69;5034003;28;20520;-76
2023/05/10 02:49:22;;;;;;;11.88;6.45;;;;;;;10.24;74.58;95433.16;5050185;28;20513;-76
2023/05/10 02:51:56;;;;;;;9.85;6.30;;;;;;;10.32;74.46;95451.19;5033981;28;20062;-77
2023/05/10 02:54:29;;;;;;;6.78;5.68;;;;;;;10.35;74.53;95471.88;5052341;28;20028;-77
2023/05/10 02:56:59;;;;;;;9.48;5.60;;;;;;;10.22;74.21;95446.66;5053179;28;20036;-76
2023/05/10 02:59:24;;;;;;;7.20;5.72;;;;;;;9.73;74.95;95381.94;5051863;28;20024;-77
2023/05/10 03:01:50;;;;;;;10.90;6.05;;;;;;;10.19;75.17;95419.91;5042413;28;20057;-77
2023/05/10 03:04:15;;;;;;;8.20;6.03;;;;;;;10.25;74.72;95435.53;5043021;28;20052;-78
2023/05/10 03:06:41;;;;;;;8.73;5.97;;;;;;;10.20;74.37;95434.75;5051940;28;20033;-78
2023/05/10 03:09:09;;;;;;;8.32;5.68;;;;;;;10.15;74.00;95435.50;5052021;28;20048;-78
2023/05/10 03:11:49;;;;;;;10.98;6.13;;;;;;;10.44;74.73;95472.94;5036464;28;20507;-77
2023/05/10 03:14:42;;;;;;;9.73;6.45;;;;;;;10.32;73.73;95480.34;5049768;28;20036;-78
2023/05/10 03:17:35;;;;;;;7.90;5.93;;;;;;;10.13;74.51;95450.09;5080401;28;20404;-77
2023/05/10 03:20:09;;;;;;;8.82;5.82;;;;;;;9.80;74.69;95411.63;5040137;28;20537;-76
2023/05/10 03:22:38;;;;;;;12.60;6.28;;;;;;;10.22;74.68;95480.34;5039415;28;20025;-77
2023/05/10 03:25:10;;;;;;;11.45;6.43;;;;;;;9.80;74.44;95438.91;5045242;28;20029;-77
2023/05/10 03:27:38;;;;;;;9.57;6.45;;;;;;;9.98;75.01;95443.72;5035604;28;20443;-77
2023/05/10 03:30:06;;;;;;;8.38;6.13;;;;;;;10.19;74.38;95457.00;5032836;28;20455;-77
2023/05/10 03:32:32;;;;;;;14.90;6.35;;;;;;;10.22;72.61;95483.00;5031437;28;20043;-77
2023/05/10 03:34:58;;;;;;;8.70;6.43;;;;;;;10.14;73.55;95470.22;5050901;28;20117;-77
2023/05/10 03:37:23;;;;;;;12.13;6.20;;;;;;;9.96;72.77;95466.22;5052802;28;20079;-77
2023/05/10 03:39:48;;;;;;;9.02;5.60;;;;;;;9.97;72.64;95467.81;5047240;28;20039;-77
2023/05/10 03:42:14;;;;;;;10.88;6.78;;;;;;;10.03;72.18;95483.47;5037445;28;20033;-77
2023/05/10 03:44:39;;;;;;;8.40;5.57;;;;;;;9.69;72.58;95421.38;5044567;28;20013;-77
2023/05/10 03:47:05;;;;;;;8.85;5.90;;;;;;;10.10;74.33;95479.75;5032934;28;20059;-77
2023/05/10 03:49:30;;;;;;;11.20;6.53;;;;;;;10.19;72.64;95480.88;5038861;28;20064;-77
2023/05/10 03:51:56;;;;;;;8.48;5.70;;;;;;;10.04;72.63;95461.22;5031845;28;20025;-77
2023/05/10 03:54:21;;;;;;;9.75;6.18;;;;;;;9.95;73.30;95483.97;5035312;28;20111;-77
2023/05/10 03:56:47;;;;;;;10.85;6.20;;;;;;;9.88;72.67;95474.69;5045846;28;20029;-77
2023/05/10 03:59:13;;;;;;;11.00;6.50;;;;;;;9.62;72.48;95442.03;5046342;28;20032;-77
2023/05/10 04:01:39;;;;;;;9.55;6.35;;;;;;;9.93;73.02;95477.34;5040565;28;20037;-77
2023/05/10 04:04:04;;;;;;;10.93;6.75;;;;;;;9.75;73.31;95462.72;5042241;28;20060;-77
2023/05/10 04:06:30;;;;;;;11.30;5.50;;;;;;;10.00;72.49;95507.81;5034578;28;20508;-77
2023/05/10 04:08:56;;;;;;;8.75;6.28;;;;;;;9.89;72.81;95474.41;5053939;28;20068;-77
2023/05/10 04:11:21;;;;;;;10.75;6.70;;;;;;;9.70;73.24;95468.00;5027994;28;20881;-77
2023/05/10 04:13:47;;;;;;;12.63;6.68;;;;;;;10.06;72.99;95501.50;5027785;28;21599;-77
2023/05/10 04:16:12;;;;;;;13.43;6.78;;;;;;;9.30;73.06;95426.31;5023619;28;20036;-77
2023/05/10 04:18:39;;;;;;;13.32;6.32;;;;;;;9.80;72.90;95465.38;5023270;28;20042;-77
2023/05/10 04:21:10;;;;;;;10.60;6.55;;;;;;;9.88;72.55;95478.13;5027433;28;20421;-77
2023/05/10 04:23:36;;;;;;;10.48;6.70;;;;;;;9.67;73.21;95458.75;5064182;28;20040;-77
2023/05/10 04:26:02;;;;;;;12.90;6.63;;;;;;;9.91;72.75;95493.50;5021134;28;20041;-78
2023/05/10 04:28:27;;;;;;;12.30;6.85;;;;;;;9.82;72.70;95462.47;5016385;28;20061;-77
2023/05/10 04:30:53;;;;;;;10.38;6.90;;;;;;;10.17;73.43;95512.94;5018388;28;20033;-77
2023/05/10 04:33:18;;;;;;;10.02;5.85;;;;;;;10.02;73.58;95489.00;5054891;28;20037;-77
2023/05/10 04:35:45;;;;;;;8.60;5.90;;;;;;;9.76;73.08;95445.78;5026621;28;20029;-77
2023/05/10 04:38:10;;;;;;;11.73;6.82;;;;;;;9.84;73.81;95449.78;5025607;28;20037;-76
2023/05/10 04:40:35;;;;;;;12.38;6.70;;;;;;;10.12;73.10;95483.75;5031936;28;20036;-77
2023/05/10 04:43:01;;;;;;;8.38;6.43;;;;;;;9.75;72.77;95443.41;5031839;28;20044;-77
2023/05/10 04:45:26;;;;;;;10.75;5.65;;;;;;;10.11;72.27;95490.09;5029729;28;20033;-77
2023/05/10 04:47:52;;;;;;;10.15;5.85;;;;;;;9.82;72.55;95446.59;5040851;28;20709;-77
2023/05/10 04:50:18;;;;;;;12.68;6.18;;;;;;;9.32;71.31;95352.72;5037401;28;20416;-77
2023/05/10 04:52:43;;;;;;;10.75;6.38;;;;;;;9.89;73.23;95447.94;5036748;28;20044;-77
2023/05/10 04:55:09;;;;;;;9.38;6.93;;;;;;;9.98;72.85;95475.50;5043916;28;20029;-78
2023/05/10 04:57:35;;;;;;;15.00;7.35;;;;;;;9.67;73.26;95424.31;5037504;28;20033;-79
2023/05/10 05:00:00;;;;;;;11.88;7.20;;;;;;;9.75;72.90;95428.31;5040371;28;20059;-80
2023/05/10 05:02:26;;;;;;;11.65;7.40;;;;;;;10.25;72.44;95482.44;5034142;28;20033;-77
2023/05/10 05:04:51;;;;;;;10.85;6.35;;;;;;;10.43;72.24;95506.63;5034751;28;20033;-76
2023/05/10 05:07:17;;;;;;;9.82;6.95;;;;;;;10.55;72.24;95521.44;5029359;28;20039;-77
2023/05/10 05:09:42;;;;;;;12.63;6.40;;;;;;;10.58;71.75;95505.81;5028098;28;20036;-78
2023/05/10 05:12:07;;;;;;;11.48;7.32;;;;;;;10.19;72.02;95455.16;5024149;28;20044;-78
2023/05/10 05:14:33;;;;;;;11.30;7.13;;;;;;;10.63;72.26;95513.78;5025526;28;20025;-78
2023/05/10 05:16:58;;;;;;;12.85;6.82;;;;;;;10.13;71.80;95477.38;5030960;28;20029;-78
2023/05/10 05:19:24;;;;;;;16.42;7.60;;;;;;;10.49;71.31;95499.44;5024251;28;20032;-79
2023/05/10 05:21:49;;;;;;;16.23;8.32;;;;;;;10.38;72.02;95484.56;5024112;28;20052;-77
2023/05/10 05:24:14;;;;;;;15.02;8.13;;;;;;;10.31;71.93;95499.94;5033251;28;20025;-79
2023/05/10 05:26:41;;;;;;;13.00;9.38;;;;;;;9.88;72.73;95442.88;5034703;28;20668;-78
2023/05/10 05:29:06;;;;;;;16.48;9.18;;;;;;;10.07;72.71;95454.56;5029901;28;20052;-79
2023/05/10 05:31:32;;;;;;;15.07;8.80;;;;;;;10.46;73.79;95526.47;5029579;28;20038;-79
2023/05/10 05:33:57;;;;;;;12.68;8.00;;;;;;;10.27;71.31;95485.66;5032435;28;20037;-80
2023/05/10 05:36:23;;;;;;;16.92;8.18;;;;;;;10.30;71.52;95485.91;5037521;28;20542;-79
2023/05/10 05:38:48;;;;;;;11.02;7.75;;;;;;;10.60;72.33;95526.78;5031654;28;20423;-78
2023/05/10 05:41:14;;;;;;;14.10;9.35;;;;;;;10.61;72.20;95502.63;5027155;28;20041;-78
2023/05/10 05:43:39;;;;;;;17.25;10.32;;;;;;;10.67;72.89;95528.09;5029585;28;20029;-78
2023/05/10 05:46:05;;;;;;;16.92;9.63;;;;;;;10.59;72.22;95527.84;5027820;28;20025;-78
2023/05/10 05:48:31;;;;;;;15.35;9.50;;;;;;;10.24;71.73;95471.06;5022578;28;20040;-78
2023/05/10 05:50:57;;;;;;;16.98;8.85;;;;;;;10.47;71.96;95524.63;5028896;28;20103;-79
2023/05/10 05:53:23;;;;;;;12.02;8.50;;;;;;;10.38;72.99;95538.41;5028685;28;20034;-79
2023/05/10 05:55:57;;;;;;;16.25;8.85;;;;;;;10.48;72.43;95527.03;5027144;28;20029;-80
2023/05/10 05:58:22;;;;;;;9.60;7.28;;;;;;;10.55;71.92;95540.03;5018819;28;20090;-81
2023/05/10 06:00:48;;;;;;;15.23;7.85;;;;;;;10.58;71.52;95534.19;5021291;28;20037;-81
2023/05/10 06:03:14;;;;;;;16.65;9.20;;;;;;;10.33;72.32;95487.22;5015928;28;20025;-80
2023/05/10 06:05:39;;;;;;;14.25;9.05;;;;;;;10.47;72.58;95536.03;5015366;28;20324;-78
2023/05/10 06:08:05;;;;;;;14.13;8.35;;;;;;;10.58;72.50;95519.09;5018549;28;20029;-79
2023/05/10 06:10:30;;;;;;;15.48;8.20;;;;;;;10.49;72.64;95520.66;5021841;28;20398;-78
2023/05/10 06:12:56;;;;;;;17.13;9.50;;;;;;;9.87;72.41;95410.31;5010069;28;20148;-81
2023/05/10 06:15:21;;;;;;;10.80;8.25;;;;;;;10.30;71.84;95504.47;5015739;28;20041;-79
2023/05/10 06:17:49;;;;;;;15.70;9.07;;;;;;;10.19;71.19;95499.41;5017154;28;20160;-78
2023/05/10 06:20:15;;;;;;;15.35;9.32;;;;;;;10.35;72.27;95504.47;5053193;28;20152;-80
2023/05/10 06:22:40;;;;;;;15.20;8.93;;;;;;;10.07;73.11;95486.38;5031383;28;20033;-79
2023/05/10 06:25:07;;;;;;;18.95;8.80;;;;;;;10.48;71.93;95548.22;5025308;28;20155;-78
2023/05/10 06:27:32;;;;;;;11.15;8.05;;;;;;;10.30;72.17;95525.66;5019199;28;20029;-79
2023/05/10 06:29:58;;;;;;;12.52;9.00;;;;;;;10.58;72.35;95553.56;5026026;28;20137;-80
2023/05/10 06:32:25;;;;;;;14.55;9.35;;;;;;;10.50;72.35;95534.72;5026497;28;20029;-80
2023/05/10 06:34:51;;;;;;;12.82;8.68;;;;;;;8.46;72.51;95199.09;5029779;28;20040;-79
2023/05/10 06:37:16;;;;;;;16.67;9.48;;;;;;;10.18;71.74;95482.72;5023758;28;20029;-78
2023/05/10 06:39:41;;;;;;;18.58;8.55;;;;;;;10.32;72.49;95520.91;5020533;28;20277;-79
2023/05/10 06:42:08;;;;;;;16.15;9.02;;;;;;;10.46;71.64;95555.66;5019180;28;20285;-79
2023/05/10 06:44:33;;;;;;;12.20;8.02;;;;;;;10.09;71.84;95513.41;5027788;28;20056;-79
2023/05/10 06:46:59;;;;;;;15.15;8.63;;;;;;;10.39;72.15;95528.59;5030952;28;20049;-78
2023/05/10 06:49:24;;;;;;;16.50;8.20;;;;;;;10.00;70.53;95493.78;5032744;28;20033;-79
2023/05/10 06:51:49;;;;;;;17.02;8.98;;;;;;;10.27;71.41;95543.97;5025164;28;20624;-79
2023/05/10 06:54:17;;;;;;;14.00;8.90;;;;;;;10.34;71.05;95524.09;5024018;28;20036;-82
2023/05/10 06:56:43;;;;;;;14.43;7.35;;;;;;;10.10;70.69;95512.34;5027171;28;20032;-85
2023/05/10 06:59:08;;;;;;;17.30;7.60;;;;;;;10.29;71.67;95549.81;5030227;28;20538;-79
2023/05/10 07:01:33;;;;;;;21.40;8.10;;;;;;;10.34;71.96;95547.16;5027009;28;20554;-81
2023/05/10 07:03:59;;;;;;;16.58;8.55;;;;;;;9.67;72.68;95429.59;5024028;28;20060;-79
2023/05/10 07:06:24;;;;;;;18.90;7.72;;;;;;;10.49;71.82;95543.72;5024086;28;20024;-80
2023/05/10 07:08:50;;;;;;;20.75;8.38;;;;;;;10.07;70.26;95518.16;5029271;28;20036;-83
2023/05/10 07:11:15;;;;;;;15.52;8.07;;;;;;;10.16;70.72;95545.75;5021840;28;20040;-79
2023/05/10 07:13:43;;;;;;;18.15;7.72;;;;;;;10.31;70.39;95531.75;5024571;28;20057;-77
2023/05/10 07:16:11;;;;;;;11.20;7.47;;;;;;;10.25;70.88;95512.41;5022713;28;20808;-85
2023/05/10 07:18:37;;;;;;;13.80;8.13;;;;;;;10.57;70.41;95553.81;5024658;28;20039;-79
2023/05/10 07:21:03;;;;;;;22.25;7.28;;;;;;;9.95;70.47;95438.13;5052592;28;20025;-79
2023/05/10 07:23:29;;;;;;;13.88;8.73;;;;;;;10.86;70.22;95567.34;5015673;28;20045;-80
2023/05/10 07:25:57;;;;;;;19.45;9.35;;;;;;;10.34;70.40;95475.56;5019295;28;20038;-80
2023/05/10 07:28:22;;;;;;;17.25;7.93;;;;;;;10.21;69.94;95457.56;5015482;28;20089;-79
2023/05/10 07:30:48;;;;;;;12.88;7.15;;;;;;;10.55;69.22;95527.56;5013868;28;21598;-79
2023/05/10 07:33:14;;;;;;;14.65;7.90;;;;;;;10.95;69.81;95569.22;5046620;28;20038;-79
2023/05/10 07:35:40;;;;;;;13.43;8.38;;;;;;;10.79;69.09;95571.06;5011305;28;20486;-79
2023/05/10 07:38:05;;;;;;;12.93;7.22;;;;;;;10.84;68.52;95554.34;5041126;28;20036;-78
2023/05/10 07:40:31;;;;;;;15.20;8.63;;;;;;;10.89;68.11;95570.28;5038025;28;20044;-79
2023/05/10 07:42:57;;;;;;;18.55;10.05;;;;;;;10.25;69.89;95487.75;5028959;28;20056;-79
2023/05/10 07:45:23;;;;;;;18.42;9.25;;;;;;;10.57;68.81;95519.34;5019758;28;20087;-78
2023/05/10 07:47:49;;;;;;;14.35;9.50;;;;;;;11.00;67.44;95579.03;5022157;28;20132;-79
2023/05/10 07:50:15;;;;;;;19.55;9.32;;;;;;;11.13;68.46;95573.22;5026068;28;20156;-79
2023/05/10 07:52:40;;;;;;;17.38;10.43;;;;;;;11.02;68.98;95545.06;5026420;28;20041;-79
2023/05/10 07:55:07;;;;;;;15.80;10.80;;;;;;;10.77;67.97;95516.69;5024455;28;20868;-80
2023/05/10 07:57:33;;;;;;;22.90;10.98;;;;;;;10.91;67.85;95556.75;5028816;28;20790;-80
2023/05/10 07:59:59;;;;;;;13.75;9.82;;;;;;;11.02;67.27;95539.75;5029435;28;20554;-81
2023/05/10 08:02:25;;;;;;;16.33;10.82;;;;;;;11.06;66.79;95532.88;5025766;28;20072;-81
2023/05/10 08:04:50;;;;;;;18.90;10.85;;;;;;;11.24;68.13;95585.38;5029390;28;20468;-79
2023/05/10 08:07:16;;;;;;;17.58;9.68;;;;;;;11.17;67.31;95584.88;5020506;28;20033;-78
2023/05/10 08:09:47;;;;;;;13.85;8.80;;;;;;;10.88;66.09;95550.13;5023633;28;20048;-79
2023/05/10 08:12:12;;;;;;;15.98;10.48;;;;;;;10.88;66.16;95549.31;5023092;28;20037;-78
2023/05/10 08:14:38;;;;;;;18.80;9.95;;;;;;;10.68;67.43;95527.03;5028692;28;20569;-78
2023/05/10 08:17:04;;;;;;;18.35;10.57;;;;;;;10.87;69.05;95527.31;5029538;28;20029;-78
2023/05/10 08:19:29;;;;;;;15.82;11.10;;;;;;;11.03;68.02;95536.03;5030216;28;20060;-79
2023/05/10 08:21:57;;;;;;;14.05;10.45;;;;;;;11.28;67.18;95557.25;5022636;28;20103;-80
2023/05/10 08:24:23;;;;;;;20.73;10.90;;;;;;;10.82;65.67;95498.94;5027238;28;20044;-79
2023/05/10 08:26:48;;;;;;;17.00;10.20;;;;;;;10.73;67.77;95521.75;5037751;28;20041;-78
2023/05/10 08:29:15;;;;;;;13.38;9.27;;;;;;;11.26;66.08;95561.22;5033007;28;20052;-78
2023/05/10 08:31:40;;;;;;;14.70;11.15;;;;;;;11.23;68.01;95565.22;5034440;28;20519;-80
2023/05/10 08:34:06;;;;;;;25.20;14.77;;;;;;;11.45;66.86;95578.97;5030330;28;20045;-79
2023/05/10 08:36:31;;;;;;;22.25;13.68;;;;;;;11.29;65.89;95536.81;5037622;28;20055;-79
2023/05/10 08:39:02;;;;;;;30.38;15.23;;;;;;;11.15;67.65;95521.41;5036558;28;20594;-80
2023/05/10 08:41:29;;;;;;;20.67;11.52;;;;;;;11.59;67.34;95587.22;5023920;28;20377;-82
2023/05/10 08:43:55;;;;;;;20.23;12.30;;;;;;;11.44;67.86;95563.34;5018530;28;20033;-84
2023/05/10 08:46:23;;;;;;;20.67;10.57;;;;;;;11.11;69.39;95531.00;5057038;28;20053;-81
2023/05/10 08:48:51;;;;;;;21.13;12.35;;;;;;;11.52;69.58;95584.81;5029787;28;20104;-83
2023/05/10 08:51:21;;;;;;;20.60;10.05;;;;;;;11.41;68.87;95585.09;5017174;28;20037;-80
2023/05/10 08:53:47;;;;;;;22.77;12.35;;;;;;;10.56;69.47;95451.44;5025516;28;20041;-81
2023/05/10 08:56:15;;;;;;;23.52;14.25;;;;;;;11.31;70.50;95556.72;5031053;28;20106;-81
2023/05/10 08:58:41;;;;;;;18.17;12.07;;;;;;;11.60;70.84;95581.59;5034681;28;20112;-79
2023/05/10 09:01:15;;;;;;;24.55;12.77;;;;;;;11.19;70.89;95503.13;5036411;28;20069;-80
2023/05/10 09:03:41;;;;;;;15.80;10.57;;;;;;;11.46;70.55;95567.28;5026657;28;20516;-80
2023/05/10 09:06:07;;;;;;;16.55;11.55;;;;;;;11.57;70.55;95568.06;5020077;28;20029;-80
2023/05/10 09:08:33;;;;;;;20.60;12.82;;;;;;;11.58;71.63;95548.44;5024306;28;20033;-82
2023/05/10 09:11:01;;;;;;;17.35;12.35;;;;;;;11.83;69.83;95566.94;5025660;28;20102;-79
2023/05/10 09:13:28;;;;;;;17.00;12.13;;;;;;;11.79;69.37;95528.72;5024212;28;20048;-81
2023/05/10 09:15:54;;;;;;;19.23;11.70;;;;;;;11.53;68.82;95487.31;5029517;28;20148;-81
2023/05/10 09:18:19;;;;;;;15.68;10.15;;;;;;;11.86;66.81;95539.03;5021238;28;20051;-80
2023/05/10 09:20:45;;;;;;;13.80;10.73;;;;;;;12.03;66.82;95565.28;5026681;28;20029;-83
2023/05/10 09:23:10;;;;;;;14.77;11.25;;;;;;;12.17;66.77;95568.94;5028782;28;20084;-82
2023/05/10 09:25:38;;;;;;;21.15;10.65;;;;;;;12.20;66.17;95577.19;5030394;28;20033;-79
2023/05/10 09:28:08;;;;;;;16.13;12.65;;;;;;;12.26;68.38;95580.59;5024592;28;20116;-78
2023/05/10 09:30:33;;;;;;;20.42;11.93;;;;;;;11.94;69.05;95501.28;5031602;28;20330;-79
2023/05/10 09:33:00;;;;;;;16.27;10.98;;;;;;;12.36;67.83;95554.72;5025473;28;20109;-79
2023/05/10 09:35:28;;;;;;;15.38;9.85;;;;;;;12.50;67.65;95575.44;5026442;28;20831;-81
2023/05/10 09:37:56;;;;;;;12.75;10.18;;;;;;;11.26;66.51;95410.69;5025689;28;20041;-86
2023/05/10 09:40:25;;;;;;;14.38;8.98;;;;;;;12.42;66.16;95576.00;5062186;28;20174;-80
2023/05/10 09:43:06;;;;;;;20.65;10.75;;;;;;;11.79;66.88;95480.88;5023175;28;20049;-80
2023/05/10 09:45:34;;;;;;;25.65;11.57;;;;;;;12.35;67.58;95553.16;5036335;28;20112;-81
2023/05/10 09:48:01;;;;;;;19.02;10.77;;;;;;;12.06;67.44;95499.06;5025704;28;21103;-79
2023/05/10 09:50:28;;;;;;;16.63;11.30;;;;;;;12.50;67.00;95568.25;5036179;28;20104;-79
2023/05/10 09:52:58;;;;;;;26.73;11.13;;;;;;;12.05;66.49;95532.06;5029433;28;20574;-83
2023/05/10 09:55:37;;;;;;;17.08;10.48;;;;;;;12.36;66.80;95560.06;5047742;28;20064;-82
2023/05/10 09:58:04;;;;;;;16.67;9.50;;;;;;;11.44;66.06;95422.59;5025126;28;20419;-82
2023/05/10 10:00:36;;;;;;;18.42;10.40;;;;;;;11.75;65.74;95452.50;5032655;28;20040;-84
2023/05/10 10:03:03;;;;;;;16.45;10.32;;;;;;;12.03;64.63;95494.31;5028050;28;20084;-85
2023/05/10 10:05:29;;;;;;;19.92;9.43;;;;;;;12.41;65.23;95551.28;5031982;28;20037;-83
2023/05/10 10:07:57;;;;;;;12.73;8.93;;;;;;;11.60;64.87;95450.63;5029402;28;20536;-83
2023/05/10 10:10:23;;;;;;;16.75;9.60;;;;;;;12.37;65.28;95556.31;5029967;28;20037;-82
2023/05/10 10:12:49;;;;;;;18.48;8.88;;;;;;;11.84;64.83;95511.94;5023188;28;20048;-81
2023/05/10 10:15:15;;;;;;;20.50;8.80;;;;;;;11.97;65.30;95495.41;5020759;28;20021;-81
2023/05/10 10:17:41;;;;;;;16.60;9.20;;;;;;;11.92;65.17;95460.88;5014215;28;20485;-82
2023/05/10 10:20:07;;;;;;;17.83;8.27;;;;;;;12.22;65.26;95531.69;5022754;28;20077;-78
2023/05/10 10:22:33;;;;;;;18.02;8.25;;;;;;;12.41;65.04;95537.16;5017543;28;20041;-78
2023/05/10 10:24:59;;;;;;;10.23;8.23;;;;;;;11.89;66.64;95478.19;5027863;28;20052;-79
2023/05/10 10:27:36;;;;;;;14.55;8.15;;;;;;;12.13;67.11;95504.09;5019433;28;20107;-80
2023/05/10 10:30:20;;;;;;;18.75;7.90;;;;;;;12.48;65.40;95543.78;5014972;28;20103;-81
2023/05/10 10:33:29;;;;;;;19.27;8.25;;;;;;;12.70;66.07;95543.34;5041695;28;20033;-80
2023/05/10 10:35:58;;;;;;;18.63;7.95;;;;;;;12.92;64.54;95537.59;5013155;28;20076;-79
2023/05/10 10:38:24;;;;;;;17.02;8.45;;;;;;;12.79;62.97;95519.59;5009230;28;20507;-80
2023/05/10 10:41:22;;;;;;;11.27;8.75;;;;;;;12.87;64.04;95503.84;5016326;28;20041;-79
2023/05/10 10:43:47;;;;;;;22.23;10.38;;;;;;;12.97;60.89;95537.56;5018119;28;20076;-80
2023/05/10 10:46:14;;;;;;;15.32;9.38;;;;;;;13.33;62.65;95541.53;5026681;28;20129;-83
2023/05/10 10:49:08;;;;;;;16.70;9.45;;;;;;;13.30;62.23;95542.06;5017680;28;20033;-81
2023/05/10 10:51:40;;;;;;;15.30;8.20;;;;;;;13.28;61.72;95541.53;5024172;28;20474;-81
2023/05/10 10:54:12;;;;;;;11.27;7.43;;;;;;;13.12;61.08;95548.09;5051570;28;20373;-79
2023/05/10 10:56:38;;;;;;;13.55;6.95;;;;;;;13.04;60.12;95527.38;5013467;28;20040;-80
2023/05/10 10:59:03;;;;;;;13.45;7.65;;;;;;;13.19;62.34;95539.78;5011102;28;20030;-80
2023/05/10 11:01:35;;;;;;;11.43;6.68;;;;;;;12.55;60.68;95424.53;5018690;28;20041;-81
2023/05/10 11:04:00;;;;;;;16.10;8.52;;;;;;;13.31;61.78;95546.31;5023766;28;20041;-80
2023/05/10 11:06:33;;;;;;;20.73;7.63;;;;;;;13.17;62.88;95550.72;5016473;28;20211;-80
2023/05/10 11:08:59;;;;;;;9.27;7.25;;;;;;;13.24;63.38;95529.88;5021676;28;20037;-82
2023/05/10 11:11:25;;;;;;;10.27;7.20;;;;;;;12.96;62.57;95472.88;5022097;28;20162;-80
2023/05/10 11:13:51;;;;;;;14.23;7.15;;;;;;;13.01;60.89;95478.16;5013371;28;20041;-86
2023/05/10 11:16:17;;;;;;;13.70;7.07;;;;;;;13.40;61.88;95539.31;5024979;28;20048;-84
2023/05/10 11:19:02;;;;;;;13.32;7.20;;;;;;;13.15;61.01;95486.28;5019020;28;20424;-80
2023/05/10 11:21:28;;;;;;;10.98;7.03;;;;;;;13.47;60.09;95544.31;5018478;28;20769;-80
2023/05/10 11:23:56;;;;;;;11.48;6.78;;;;;;;13.42;60.02;95544.38;5024785;28;20036;-80
2023/05/10 11:26:32;;;;;;;10.63;6.45;;;;;;;13.42;59.25;95547.81;5026637;28;20036;-80
2023/05/10 11:29:01;;;;;;;13.20;7.35;;;;;;;13.49;60.94;95526.97;5028600;28;20096;-79